Terminal Aerodrome Forecast
Issued by NWS Duluth, MN

Home | Current Version | Previous Version | Text Only | Print | Product List | Glossary On
Versions: 1 2 3 4 5 6 7 8 9 10 11 12
387
FTUS43 KDLH 221738
TAFINL
TAF
KINL 221738Z 2218/2318 01008KT P6SM SCT250
     FM230100 04004KT P6SM SCT150
     FM231200 09009KT P6SM BKN250=

USA.gov is the U.S. government's official web portal to all federal, state and local government web resources and services.